La Grande, OR

12:06 AM PDT on August 26, 2016 (GMT -0700)
La Grande-Union County

Weather History for KLGD - December, 2012

Change the Weather History Date:

Wednesday, December 19, 2012

  Actual Average Record
Temperature  
Mean Temperature 27 °F -  
Max Temperature 33 °F 34 °F 49 °F (1979)
Min Temperature 21 °F 23 °F -4 °F (1990)
Degree Days  
Heating Degree Days 38    
Moisture  
Dew Point 12 °F    
Average Humidity 53    
Maximum Humidity 68    
Minimum Humidity 41    
Precipitation  
Precipitation 0.00 in - - ()
Sea Level Pressure  
Sea Level Pressure 30.03 in    
Wind  
Wind Speed 15 mph (South)    
Max Wind Speed 30 mph    
Max Gust Speed 41 mph    
Visibility 10 miles    
Events      
Averages and records for this station are not official NWS values.
T = Trace of Precipitation, MM = Missing Value Source: NWS Daily Summary

Daily Weather History Graph

Daily Weather History Graph

Search for Another Location

Airport or City:

Trip Planner

Search our weather history database for the weather conditions in past years. The results will help you decide how hot, cold, wet, or windy it might be!

Date:

Astronomy

Dec. 19, 2012 Rise Set
Actual Time 7:27 AM PST 4:11 PM PST
Civil Twilight 6:53 AM PST 4:45 PM PST
Nautical Twilight 6:15 AM PST 5:23 PM PST
Astronomical Twilight 5:39 AM PST 5:59 PM PST
Moon 11:19 AM PST (12/19) No Moon Set
Length of Visible Light 9h 52m
Length of Day
8h 43m
Waxing Crescent, 46% of the Moon is Illuminated
Dec 19
Waxing Crescent
Dec 19
First Quarter
Dec 28
Full
Jan 4
Last Quarter
Jan 11
New

Hourly Weather History & Observations

Time (PST) Temp. Windchill Dew Point Humidity Pressure Visibility Wind Dir Wind Speed Gust Speed Precip Events Conditions
12:15 AM 24.8 °F 20.5 °F 12.2 °F 59% 29.98 in 10.0 mi South 3.5 mph - N/A   Scattered Clouds
12:35 AM 21.2 °F 14.9 °F 10.4 °F 63% 29.98 in 10.0 mi WNW 4.6 mph - N/A   Mostly Cloudy
12:55 AM 21.2 °F 13.6 °F 12.2 °F 68% 29.98 in 10.0 mi South 5.8 mph - N/A   Mostly Cloudy
1:15 AM 23.0 °F 17.0 °F 12.2 °F 63% 29.98 in 10.0 mi South 4.6 mph - N/A   Partly Cloudy
1:35 AM 23.0 °F 15.8 °F 12.2 °F 63% 29.99 in 10.0 mi South 5.8 mph - N/A   Clear
1:55 AM 24.8 °F 16.1 °F 12.2 °F 59% 29.99 in 10.0 mi South 8.1 mph - N/A   Clear
2:15 AM 24.8 °F 16.9 °F 12.2 °F 59% 30.00 in 10.0 mi SSW 6.9 mph - N/A   Clear
2:35 AM 23.0 °F 12.4 °F 10.4 °F 59% 30.00 in 10.0 mi SSW 10.4 mph - N/A   Clear
2:55 AM 23.0 °F 13.9 °F 12.2 °F 63% 30.00 in 10.0 mi South 8.1 mph - N/A   Clear
3:15 AM 23.0 °F 11.7 °F 12.2 °F 63% 30.00 in 10.0 mi South 11.5 mph - N/A   Clear
3:35 AM 23.0 °F 11.1 °F 12.2 °F 63% 30.01 in 10.0 mi SSW 12.7 mph - N/A   Clear
3:55 AM 23.0 °F 11.1 °F 12.2 °F 63% 30.01 in 10.0 mi SSW 12.7 mph - N/A   Clear
4:15 AM 23.0 °F 10.6 °F 10.4 °F 59% 30.00 in 10.0 mi SSW 13.8 mph - N/A   Clear
4:35 AM 23.0 °F 9.2 °F 12.2 °F 63% 30.01 in 10.0 mi SSW 17.3 mph - N/A   Clear
4:55 AM 23.0 °F 9.6 °F 12.2 °F 63% 30.01 in 10.0 mi SSW 16.1 mph - N/A   Clear
5:15 AM 24.8 °F 11.5 °F 12.2 °F 59% 30.02 in 10.0 mi South 17.3 mph - N/A   Clear
5:35 AM 24.8 °F 11.5 °F 12.2 °F 59% 30.02 in 10.0 mi South 17.3 mph 26.5 mph N/A   Clear
5:55 AM 24.8 °F 10.3 °F 12.2 °F 59% 30.02 in 10.0 mi SSW 20.7 mph 25.3 mph N/A   Clear
6:15 AM 24.8 °F 10.0 °F 10.4 °F 54% 30.03 in 10.0 mi South 21.9 mph - N/A   Clear
6:35 AM 23.0 °F 8.0 °F 10.4 °F 59% 30.03 in 10.0 mi South 20.7 mph - N/A   Clear
6:55 AM 24.8 °F 10.7 °F 10.4 °F 54% 30.02 in 10.0 mi South 19.6 mph 25.3 mph N/A   Partly Cloudy
7:15 AM 24.8 °F 9.3 °F 10.4 °F 54% 30.03 in 10.0 mi SSW 24.2 mph 28.8 mph N/A   Partly Cloudy
7:35 AM 24.8 °F 9.3 °F 10.4 °F 54% 30.03 in 10.0 mi SSW 24.2 mph 31.1 mph N/A   Clear
7:55 AM 24.8 °F 10.0 °F 10.4 °F 54% 30.03 in 10.0 mi SSW 21.9 mph 29.9 mph N/A   Mostly Cloudy
8:15 AM 24.8 °F 9.3 °F 10.4 °F 54% 30.04 in 10.0 mi South 24.2 mph 31.1 mph N/A   Overcast
8:35 AM 24.8 °F 9.0 °F 10.4 °F 54% 30.04 in 10.0 mi SSW 25.3 mph 32.2 mph N/A   Overcast
8:55 AM 24.8 °F 8.4 °F 12.2 °F 59% 30.05 in 10.0 mi South 27.6 mph 33.4 mph N/A   Overcast
9:15 AM 24.8 °F 12.4 °F 10.4 °F 54% 30.06 in 10.0 mi South 15.0 mph 35.7 mph N/A   Overcast
9:35 AM 26.6 °F 16.2 °F 10.4 °F 51% 30.06 in 10.0 mi SE 11.5 mph 28.8 mph N/A   Overcast
9:55 AM 26.6 °F 13.4 °F 12.2 °F 55% 30.07 in 10.0 mi SSE 18.4 mph 31.1 mph N/A   Overcast
10:15 AM 26.6 °F 14.3 °F 12.2 °F 55% 30.06 in 10.0 mi SE 16.1 mph 27.6 mph N/A   Overcast
10:35 AM 26.6 °F 12.4 °F 12.2 °F 55% 30.07 in 10.0 mi SSE 21.9 mph 38.0 mph N/A   Overcast
10:55 AM 26.6 °F 11.7 °F 12.2 °F 55% 30.05 in 10.0 mi South 24.2 mph 35.7 mph N/A   Overcast
11:15 AM 26.6 °F 10.3 °F 12.2 °F 55% 30.03 in 10.0 mi South 29.9 mph 34.5 mph N/A   Overcast
11:35 AM 28.4 °F 13.8 °F 14.0 °F 55% 30.03 in 10.0 mi South 25.3 mph 34.5 mph N/A   Overcast
11:55 AM 28.4 °F 13.0 °F 12.2 °F 51% 30.03 in 10.0 mi SSE 28.8 mph 40.3 mph N/A   Overcast
12:15 PM 30.2 °F 15.4 °F 12.2 °F 47% 30.03 in 10.0 mi SSE 28.8 mph 41.4 mph N/A   Overcast
12:35 PM 30.2 °F 16.8 °F 12.2 °F 47% 30.04 in 10.0 mi South 23.0 mph 32.2 mph N/A   Overcast
12:55 PM 30.2 °F 17.8 °F 12.2 °F 47% 30.05 in 10.0 mi South 19.6 mph 40.3 mph N/A   Overcast
1:15 PM 30.2 °F 17.1 °F 12.2 °F 47% 30.04 in 10.0 mi SSE 21.9 mph 33.4 mph N/A   Overcast
1:35 PM 30.2 °F 15.2 °F 12.2 °F 47% 30.04 in 10.0 mi SSE 29.9 mph 36.8 mph N/A   Overcast
1:55 PM 30.2 °F 16.2 °F 12.2 °F 47% 30.05 in 10.0 mi SSE 25.3 mph 35.7 mph N/A   Overcast
2:15 PM 30.2 °F 15.7 °F 12.2 °F 47% 30.05 in 10.0 mi SE 27.6 mph 35.7 mph N/A   Overcast
2:35 PM 30.2 °F 20.2 °F 12.2 °F 47% 30.05 in 10.0 mi SSE 12.7 mph 29.9 mph N/A   Overcast
2:55 PM 30.2 °F 19.3 °F 12.2 °F 47% 30.05 in 10.0 mi SSE 15.0 mph 19.6 mph N/A   Overcast
3:15 PM 30.2 °F 18.5 °F 14.0 °F 51% 30.05 in 10.0 mi SSE 17.3 mph 24.2 mph N/A   Overcast
3:35 PM 28.4 °F 16.6 °F 14.0 °F 55% 30.04 in 10.0 mi SSE 16.1 mph 24.2 mph N/A   Overcast
3:55 PM 28.4 °F 15.1 °F 15.8 °F 59% 30.03 in 10.0 mi SSE 20.7 mph 28.8 mph N/A   Overcast
4:15 PM 30.2 °F 15.4 °F 14.0 °F 51% 30.03 in 10.0 mi SSE 28.8 mph 39.1 mph N/A   Overcast
4:35 PM 30.2 °F 16.2 °F 14.0 °F 51% 30.04 in 10.0 mi SSE 25.3 mph 31.1 mph N/A   Overcast
4:55 PM 30.2 °F 15.9 °F 14.0 °F 51% 30.04 in 10.0 mi SSE 26.5 mph 38.0 mph N/A   Overcast
5:15 PM 30.2 °F 15.9 °F 14.0 °F 51% 30.04 in 10.0 mi SE 26.5 mph 34.5 mph N/A   Overcast
5:35 PM 30.2 °F 17.4 °F 14.0 °F 51% 30.05 in 10.0 mi SSE 20.7 mph 27.6 mph N/A   Overcast
5:55 PM 30.2 °F 16.8 °F 14.0 °F 51% 30.05 in 10.0 mi SSE 23.0 mph 35.7 mph N/A   Overcast
6:15 PM 30.2 °F 17.4 °F 14.0 °F 51% 30.03 in 10.0 mi SE 20.7 mph 33.4 mph N/A   Overcast
6:35 PM 32.0 °F 19.2 °F 14.0 °F 48% 30.02 in 10.0 mi SSE 23.0 mph 27.6 mph N/A   Overcast
6:55 PM 32.0 °F 21.2 °F 14.0 °F 48% 30.02 in 10.0 mi SSE 16.1 mph 29.9 mph N/A   Overcast
7:15 PM 32.0 °F 20.5 °F 14.0 °F 48% 30.03 in 10.0 mi SSE 18.4 mph 29.9 mph N/A   Overcast
7:35 PM 32.0 °F 21.6 °F 14.0 °F 48% 30.03 in 10.0 mi SSE 15.0 mph 27.6 mph N/A   Overcast
7:55 PM 32.0 °F 21.6 °F 12.2 °F 44% 30.03 in 10.0 mi SSE 15.0 mph 23.0 mph N/A   Overcast
8:15 PM 33.8 °F 24.3 °F 12.2 °F 41% 30.03 in 10.0 mi SSE 13.8 mph 33.4 mph N/A   Overcast
8:35 PM 32.0 °F 20.8 °F 12.2 °F 44% 30.03 in 10.0 mi SSE 17.3 mph 28.8 mph N/A   Overcast
8:55 PM 33.8 °F 21.9 °F 12.2 °F 41% 30.02 in 10.0 mi SSE 21.9 mph 28.8 mph N/A   Overcast
9:15 PM 33.8 °F 23.9 °F 12.2 °F 41% 30.02 in 10.0 mi SE 15.0 mph 33.4 mph N/A   Overcast
9:35 PM 33.8 °F 21.3 °F 12.2 °F 41% 30.02 in 10.0 mi SE 24.2 mph 34.5 mph N/A   Overcast
9:55 PM 33.8 °F 20.5 °F 12.2 °F 41% 30.02 in 10.0 mi SE 27.6 mph 38.0 mph N/A   Overcast
10:15 PM 33.8 °F 21.9 °F 12.2 °F 41% 30.02 in 10.0 mi SE 21.9 mph 29.9 mph N/A   Overcast
10:55 PM 33.8 °F 20.8 °F 12.2 °F 41% 30.02 in 10.0 mi SE 26.5 mph 38.0 mph N/A   Overcast
11:15 PM 33.8 °F 20.3 °F 12.2 °F 41% 30.00 in 10.0 mi SE 28.8 mph 36.8 mph N/A   Overcast
11:35 PM 33.8 °F 22.5 °F 14.0 °F 44% 30.00 in 10.0 mi SSE 19.6 mph 32.2 mph N/A   Overcast
11:55 PM 33.8 °F 21.6 °F 14.0 °F 44% 29.98 in 10.0 mi SSE 23.0 mph 31.1 mph N/A   Overcast